sensor_id;sensor_type;location;lat;lon;timestamp;pressure;altitude;pressure_sealevel;temperature;humidity
10261;BME280;5175;42.606;23.388;2023-11-22T00:01:50;93049.63;;;7.12;100.00
10261;BME280;5175;42.606;23.388;2023-11-22T00:04:18;93055.31;;;6.95;100.00
10261;BME280;5175;42.606;23.388;2023-11-22T00:06:45;93036.25;;;6.93;100.00
10261;BME280;5175;42.606;23.388;2023-11-22T00:09:12;93044.69;;;7.00;100.00
10261;BME280;5175;42.606;23.388;2023-11-22T00:11:40;93040.66;;;7.08;100.00
10261;BME280;5175;42.606;23.388;2023-11-22T00:14:06;93034.56;;;7.07;100.00
10261;BME280;5175;42.606;23.388;2023-11-22T00:16:33;93034.06;;;7.05;100.00
10261;BME280;5175;42.606;23.388;2023-11-22T00:19:02;93017.59;;;7.08;100.00
10261;BME280;5175;42.606;23.388;2023-11-22T00:21:32;93018.66;;;7.07;100.00
10261;BME280;5175;42.606;23.388;2023-11-22T00:23:58;93016.31;;;7.01;100.00
10261;BME280;5175;42.606;23.388;2023-11-22T00:26:25;93018.50;;;6.83;100.00
10261;BME280;5175;42.606;23.388;2023-11-22T00:28:52;93017.19;;;6.81;100.00
10261;BME280;5175;42.606;23.388;2023-11-22T00:31:19;93020.06;;;6.94;100.00
10261;BME280;5175;42.606;23.388;2023-11-22T00:33:45;93021.63;;;7.01;100.00
10261;BME280;5175;42.606;23.388;2023-11-22T00:36:12;92999.34;;;6.97;100.00
10261;BME280;5175;42.606;23.388;2023-11-22T00:38:40;93019.06;;;7.24;100.00
10261;BME280;5175;42.606;23.388;2023-11-22T00:41:07;93013.84;;;7.09;100.00
10261;BME280;5175;42.606;23.388;2023-11-22T00:43:34;93012.00;;;7.10;100.00
10261;BME280;5175;42.606;23.388;2023-11-22T00:46:01;93022.63;;;7.05;100.00
10261;BME280;5175;42.606;23.388;2023-11-22T00:48:28;93021.53;;;7.16;100.00
10261;BME280;5175;42.606;23.388;2023-11-22T00:50:55;93017.91;;;6.97;100.00
10261;BME280;5175;42.606;23.388;2023-11-22T00:53:21;93002.19;;;7.10;100.00
10261;BME280;5175;42.606;23.388;2023-11-22T00:55:49;93017.03;;;7.11;100.00
10261;BME280;5175;42.606;23.388;2023-11-22T00:58:16;93010.06;;;7.20;100.00
10261;BME280;5175;42.606;23.388;2023-11-22T01:00:43;93016.47;;;7.14;100.00
10261;BME280;5175;42.606;23.388;2023-11-22T01:03:10;93016.84;;;6.98;100.00
10261;BME280;5175;42.606;23.388;2023-11-22T01:05:37;93026.44;;;6.88;100.00
10261;BME280;5175;42.606;23.388;2023-11-22T01:08:04;93029.59;;;6.96;100.00
10261;BME280;5175;42.606;23.388;2023-11-22T01:10:30;93024.41;;;7.19;100.00
10261;BME280;5175;42.606;23.388;2023-11-22T01:12:58;93011.75;;;7.06;100.00
10261;BME280;5175;42.606;23.388;2023-11-22T01:15:26;93007.22;;;7.12;100.00
10261;BME280;5175;42.606;23.388;2023-11-22T01:17:53;92991.88;;;7.04;100.00
10261;BME280;5175;42.606;23.388;2023-11-22T01:20:20;93003.28;;;7.04;100.00
10261;BME280;5175;42.606;23.388;2023-11-22T01:22:48;93000.81;;;7.18;100.00
10261;BME280;5175;42.606;23.388;2023-11-22T01:25:14;92986.41;;;7.29;100.00
10261;BME280;5175;42.606;23.388;2023-11-22T01:27:41;92987.94;;;7.35;100.00
10261;BME280;5175;42.606;23.388;2023-11-22T01:30:09;92988.69;;;7.40;100.00
10261;BME280;5175;42.606;23.388;2023-11-22T01:32:37;92995.13;;;7.29;100.00
10261;BME280;5175;42.606;23.388;2023-11-22T01:35:05;92967.88;;;7.24;100.00
10261;BME280;5175;42.606;23.388;2023-11-22T01:37:32;92988.69;;;7.40;100.00
10261;BME280;5175;42.606;23.388;2023-11-22T01:39:58;92987.84;;;7.45;100.00
10261;BME280;5175;42.606;23.388;2023-11-22T01:42:25;92982.28;;;7.46;100.00
10261;BME280;5175;42.606;23.388;2023-11-22T01:44:52;92984.66;;;7.48;100.00
10261;BME280;5175;42.606;23.388;2023-11-22T01:47:21;92983.13;;;7.42;100.00
10261;BME280;5175;42.606;23.388;2023-11-22T01:49:48;92980.53;;;7.32;100.00
10261;BME280;5175;42.606;23.388;2023-11-22T01:52:15;92971.09;;;7.21;100.00
10261;BME280;5175;42.606;23.388;2023-11-22T01:54:41;92963.88;;;7.26;100.00
10261;BME280;5175;42.606;23.388;2023-11-22T01:57:09;92967.56;;;7.30;100.00
10261;BME280;5175;42.606;23.388;2023-11-22T01:59:37;92967.47;;;7.40;100.00
10261;BME280;5175;42.606;23.388;2023-11-22T02:02:04;92959.41;;;7.50;100.00
10261;BME280;5175;42.606;23.388;2023-11-22T02:04:33;92954.16;;;7.45;100.00
10261;BME280;5175;42.606;23.388;2023-11-22T02:06:59;92959.00;;;7.38;100.00
10261;BME280;5175;42.606;23.388;2023-11-22T02:09:26;92956.81;;;7.45;100.00
10261;BME280;5175;42.606;23.388;2023-11-22T02:11:53;92952.28;;;7.46;100.00
10261;BME280;5175;42.606;23.388;2023-11-22T02:14:20;92955.75;;;7.46;100.00
10261;BME280;5175;42.606;23.388;2023-11-22T02:16:46;92966.06;;;7.48;100.00
10261;BME280;5175;42.606;23.388;2023-11-22T02:19:15;92967.94;;;7.47;100.00
10261;BME280;5175;42.606;23.388;2023-11-22T02:21:44;92953.88;;;7.47;100.00
10261;BME280;5175;42.606;23.388;2023-11-22T02:24:12;92965.84;;;7.44;100.00
10261;BME280;5175;42.606;23.388;2023-11-22T02:26:43;92965.94;;;7.29;100.00
10261;BME280;5175;42.606;23.388;2023-11-22T02:29:11;92962.28;;;7.25;100.00
10261;BME280;5175;42.606;23.388;2023-11-22T02:31:39;92970.13;;;7.40;100.00
10261;BME280;5175;42.606;23.388;2023-11-22T02:34:06;92962.28;;;7.25;100.00
10261;BME280;5175;42.606;23.388;2023-11-22T02:36:32;92954.88;;;7.22;100.00
10261;BME280;5175;42.606;23.388;2023-11-22T02:38:59;92964.34;;;7.33;100.00
10261;BME280;5175;42.606;23.388;2023-11-22T02:41:28;92965.84;;;7.44;100.00
10261;BME280;5175;42.606;23.388;2023-11-22T02:43:55;92964.81;;;7.40;100.00
10261;BME280;5175;42.606;23.388;2023-11-22T02:46:22;92964.06;;;7.35;100.00
10261;BME280;5175;42.606;23.388;2023-11-22T02:48:48;92965.41;;;7.32;100.00
10261;BME280;5175;42.606;23.388;2023-11-22T02:51:15;92960.59;;;7.39;100.00
10261;BME280;5175;42.606;23.388;2023-11-22T02:53:42;92974.78;;;7.53;100.00
10261;BME280;5175;42.606;23.388;2023-11-22T02:56:11;92962.91;;;7.46;100.00
10261;BME280;5175;42.606;23.388;2023-11-22T02:58:39;92979.38;;;7.43;100.00
10261;BME280;5175;42.606;23.388;2023-11-22T03:01:06;92962.50;;;7.34;100.00
10261;BME280;5175;42.606;23.388;2023-11-22T03:03:32;92960.25;;;7.46;100.00
10261;BME280;5175;42.606;23.388;2023-11-22T03:05:59;92971.88;;;7.50;100.00
10261;BME280;5175;42.606;23.388;2023-11-22T03:08:26;92971.94;;;7.45;100.00
10261;BME280;5175;42.606;23.388;2023-11-22T03:10:53;92951.34;;;7.32;100.00
10261;BME280;5175;42.606;23.388;2023-11-22T03:13:19;92985.78;;;7.42;100.00
10261;BME280;5175;42.606;23.388;2023-11-22T03:15:48;92967.78;;;7.34;100.00
10261;BME280;5175;42.606;23.388;2023-11-22T03:18:14;92979.50;;;7.28;100.00
10261;BME280;5175;42.606;23.388;2023-11-22T03:20:41;92983.75;;;7.29;100.00
10261;BME280;5175;42.606;23.388;2023-11-22T03:23:08;92980.72;;;7.07;100.00
10261;BME280;5175;42.606;23.388;2023-11-22T03:25:36;92976.75;;;7.04;100.00
10261;BME280;5175;42.606;23.388;2023-11-22T03:28:03;92969.25;;;7.16;100.00
10261;BME280;5175;42.606;23.388;2023-11-22T03:30:30;92983.13;;;7.42;100.00
10261;BME280;5175;42.606;23.388;2023-11-22T03:32:58;92966.13;;;7.43;100.00
10261;BME280;5175;42.606;23.388;2023-11-22T03:35:25;92971.38;;;7.48;100.00
10261;BME280;5175;42.606;23.388;2023-11-22T03:37:51;92969.28;;;7.45;100.00
10261;BME280;5175;42.606;23.388;2023-11-22T03:40:18;92962.31;;;7.54;100.00
10261;BME280;5175;42.606;23.388;2023-11-22T03:42:45;92964.34;;;7.62;100.00
10261;BME280;5175;42.606;23.388;2023-11-22T03:45:12;92971.78;;;7.60;100.00
10261;BME280;5175;42.606;23.388;2023-11-22T03:47:39;92976.22;;;7.70;100.00
10261;BME280;5175;42.606;23.388;2023-11-22T03:50:08;92969.13;;;7.65;100.00
10261;BME280;5175;42.606;23.388;2023-11-22T03:52:35;92969.38;;;7.64;100.00
10261;BME280;5175;42.606;23.388;2023-11-22T03:55:03;92966.16;;;7.67;100.00
10261;BME280;5175;42.606;23.388;2023-11-22T03:57:30;92963.47;;;7.72;100.00
10261;BME280;5175;42.606;23.388;2023-11-22T03:59:57;92958.00;;;7.58;100.00
10261;BME280;5175;42.606;23.388;2023-11-22T04:02:24;92964.34;;;7.62;100.00
10261;BME280;5175;42.606;23.388;2023-11-22T04:04:51;92960.34;;;7.65;100.00
10261;BME280;5175;42.606;23.388;2023-11-22T04:07:19;92955.00;;;7.70;100.00
10261;BME280;5175;42.606;23.388;2023-11-22T04:09:45;92969.72;;;7.81;100.00
10261;BME280;5175;42.606;23.388;2023-11-22T04:12:12;92966.63;;;7.74;100.00
10261;BME280;5175;42.606;23.388;2023-11-22T04:14:39;92957.81;;;7.78;100.00
10261;BME280;5175;42.606;23.388;2023-11-22T04:17:05;92986.09;;;7.93;100.00
10261;BME280;5175;42.606;23.388;2023-11-22T04:19:32;92977.03;;;7.94;100.00
10261;BME280;5175;42.606;23.388;2023-11-22T04:21:59;92986.00;;;8.03;100.00
10261;BME280;5175;42.606;23.388;2023-11-22T04:24:27;92992.88;;;8.04;100.00
10261;BME280;5175;42.606;23.388;2023-11-22T04:26:53;93006.09;;;8.09;100.00
10261;BME280;5175;42.606;23.388;2023-11-22T04:29:20;92995.03;;;8.02;100.00
10261;BME280;5175;42.606;23.388;2023-11-22T04:31:47;93001.97;;;7.98;100.00
10261;BME280;5175;42.606;23.388;2023-11-22T04:34:13;93008.34;;;7.97;100.00
10261;BME280;5175;42.606;23.388;2023-11-22T04:36:40;93012.09;;;7.96;100.00
10261;BME280;5175;42.606;23.388;2023-11-22T04:39:07;93023.69;;;8.05;100.00
10261;BME280;5175;42.606;23.388;2023-11-22T04:41:36;93012.03;;;8.01;100.00
10261;BME280;5175;42.606;23.388;2023-11-22T04:44:03;93023.72;;;8.00;100.00
10261;BME280;5175;42.606;23.388;2023-11-22T04:46:30;93030.63;;;8.01;100.00
10261;BME280;5175;42.606;23.388;2023-11-22T04:48:58;93027.44;;;7.99;100.00
10261;BME280;5175;42.606;23.388;2023-11-22T04:51:24;93031.75;;;7.95;100.00
10261;BME280;5175;42.606;23.388;2023-11-22T04:53:51;93038.97;;;7.89;100.00
10261;BME280;5175;42.606;23.388;2023-11-22T04:56:18;93043.34;;;7.75;100.00
10261;BME280;5175;42.606;23.388;2023-11-22T04:58:46;93047.78;;;7.85;100.00
10261;BME280;5175;42.606;23.388;2023-11-22T05:01:13;93056.00;;;7.83;100.00
10261;BME280;5175;42.606;23.388;2023-11-22T05:03:40;93056.91;;;7.74;100.00
10261;BME280;5175;42.606;23.388;2023-11-22T05:06:06;93067.44;;;7.84;100.00
10261;BME280;5175;42.606;23.388;2023-11-22T05:08:33;93065.84;;;7.83;100.00
10261;BME280;5175;42.606;23.388;2023-11-22T05:11:00;93063.38;;;7.57;100.00
10261;BME280;5175;42.606;23.388;2023-11-22T05:13:28;93080.88;;;7.64;100.00
10261;BME280;5175;42.606;23.388;2023-11-22T05:15:56;93073.16;;;7.67;100.00
10261;BME280;5175;42.606;23.388;2023-11-22T05:18:23;93082.94;;;7.72;100.00
10261;BME280;5175;42.606;23.388;2023-11-22T05:20:50;93079.22;;;7.73;100.00
10261;BME280;5175;42.606;23.388;2023-11-22T05:23:17;93080.78;;;7.74;100.00
10261;BME280;5175;42.606;23.388;2023-11-22T05:25:44;93091.91;;;7.76;100.00
10261;BME280;5175;42.606;23.388;2023-11-22T05:28:11;93086.06;;;7.79;100.00
10261;BME280;5175;42.606;23.388;2023-11-22T05:30:38;93088.13;;;7.87;100.00
10261;BME280;5175;42.606;23.388;2023-11-22T05:33:06;93092.88;;;7.90;100.00
10261;BME280;5175;42.606;23.388;2023-11-22T05:35:33;93087.59;;;7.85;100.00
10261;BME280;5175;42.606;23.388;2023-11-22T05:38:00;93106.41;;;7.93;100.00
10261;BME280;5175;42.606;23.388;2023-11-22T05:40:27;93106.06;;;8.00;100.00
10261;BME280;5175;42.606;23.388;2023-11-22T05:42:54;93116.06;;;7.79;100.00
10261;BME280;5175;42.606;23.388;2023-11-22T05:45:20;93119.03;;;7.73;100.00
10261;BME280;5175;42.606;23.388;2023-11-22T05:47:47;93125.34;;;7.82;100.00
10261;BME280;5175;42.606;23.388;2023-11-22T05:50:15;93120.31;;;7.80;100.00
10261;BME280;5175;42.606;23.388;2023-11-22T05:52:42;93133.81;;;7.84;100.00
10261;BME280;5175;42.606;23.388;2023-11-22T05:55:09;93120.88;;;7.77;100.00
10261;BME280;5175;42.606;23.388;2023-11-22T05:57:39;93130.09;;;7.85;100.00
10261;BME280;5175;42.606;23.388;2023-11-22T06:00:08;93131.66;;;7.86;100.00
10261;BME280;5175;42.606;23.388;2023-11-22T06:02:34;93131.63;;;7.96;100.00
10261;BME280;5175;42.606;23.388;2023-11-22T06:05:03;93133.50;;;7.90;100.00
10261;BME280;5175;42.606;23.388;2023-11-22T06:07:32;93136.28;;;7.75;100.00
10261;BME280;5175;42.606;23.388;2023-11-22T06:09:59;93149.22;;;7.82;100.00
10261;BME280;5175;42.606;23.388;2023-11-22T06:12:28;93141.47;;;7.90;100.00
10261;BME280;5175;42.606;23.388;2023-11-22T06:14:55;93150.53;;;7.84;100.00
10261;BME280;5175;42.606;23.388;2023-11-22T06:17:22;93153.53;;;7.78;100.00
10261;BME280;5175;42.606;23.388;2023-11-22T06:19:49;93164.28;;;7.91;100.00
10261;BME280;5175;42.606;23.388;2023-11-22T06:22:15;93162.19;;;7.93;100.00
10261;BME280;5175;42.606;23.388;2023-11-22T06:24:44;93185.78;;;7.95;100.00
10261;BME280;5175;42.606;23.388;2023-11-22T06:27:13;93185.03;;;7.89;100.00
10261;BME280;5175;42.606;23.388;2023-11-22T06:29:40;93160.34;;;7.89;100.00
10261;BME280;5175;42.606;23.388;2023-11-22T06:32:08;93204.41;;;7.90;100.00
10261;BME280;5175;42.606;23.388;2023-11-22T06:34:35;93165.56;;;7.65;100.00
10261;BME280;5175;42.606;23.388;2023-11-22T06:37:02;93186.91;;;7.84;100.00
10261;BME280;5175;42.606;23.388;2023-11-22T06:39:29;93197.56;;;7.79;100.00
10261;BME280;5175;42.606;23.388;2023-11-22T06:41:57;93184.03;;;7.80;100.00
10261;BME280;5175;42.606;23.388;2023-11-22T06:44:24;93189.34;;;7.80;100.00
10261;BME280;5175;42.606;23.388;2023-11-22T06:46:51;93194.47;;;7.67;100.00
10261;BME280;5175;42.606;23.388;2023-11-22T06:49:19;93191.41;;;7.93;100.00
10261;BME280;5175;42.606;23.388;2023-11-22T06:51:46;93197.63;;;7.69;100.00
10261;BME280;5175;42.606;23.388;2023-11-22T06:54:12;93198.06;;;7.86;100.00
10261;BME280;5175;42.606;23.388;2023-11-22T06:56:39;93214.72;;;7.96;100.00
10261;BME280;5175;42.606;23.388;2023-11-22T06:59:07;93218.09;;;8.07;100.00
10261;BME280;5175;42.606;23.388;2023-11-22T07:01:34;93217.28;;;8.11;100.00
10261;BME280;5175;42.606;23.388;2023-11-22T07:04:01;93217.56;;;8.10;100.00
10261;BME280;5175;42.606;23.388;2023-11-22T07:06:30;93224.63;;;8.25;100.00
10261;BME280;5175;42.606;23.388;2023-11-22T07:08:56;93220.09;;;8.25;100.00
10261;BME280;5175;42.606;23.388;2023-11-22T07:11:24;93221.19;;;8.29;100.00
10261;BME280;5175;42.606;23.388;2023-11-22T07:13:51;93218.19;;;8.36;100.00
10261;BME280;5175;42.606;23.388;2023-11-22T07:16:19;93216.41;;;8.21;100.00
10261;BME280;5175;42.606;23.388;2023-11-22T07:18:46;93212.84;;;8.41;100.00
10261;BME280;5175;42.606;23.388;2023-11-22T07:21:13;93210.47;;;8.39;100.00
10261;BME280;5175;42.606;23.388;2023-11-22T07:23:40;93209.88;;;8.47;100.00
10261;BME280;5175;42.606;23.388;2023-11-22T07:26:06;93231.25;;;8.61;100.00
10261;BME280;5175;42.606;23.388;2023-11-22T07:28:33;93231.09;;;8.52;100.00
10261;BME280;5175;42.606;23.388;2023-11-22T07:31:01;93228.91;;;8.59;100.00
10261;BME280;5175;42.606;23.388;2023-11-22T07:33:29;93238.03;;;8.77;100.00
10261;BME280;5175;42.606;23.388;2023-11-22T07:35:56;93233.13;;;8.89;100.00
10261;BME280;5175;42.606;23.388;2023-11-22T07:38:24;93226.00;;;8.85;100.00
10261;BME280;5175;42.606;23.388;2023-11-22T07:40:51;93230.06;;;8.77;100.00
10261;BME280;5175;42.606;23.388;2023-11-22T07:43:17;93228.38;;;8.86;100.00
10261;BME280;5175;42.606;23.388;2023-11-22T07:45:44;93235.00;;;8.89;100.00
10261;BME280;5175;42.606;23.388;2023-11-22T07:48:12;93240.00;;;8.95;100.00
10261;BME280;5175;42.606;23.388;2023-11-22T07:50:40;93248.13;;;9.09;100.00
10261;BME280;5175;42.606;23.388;2023-11-22T07:53:09;93240.50;;;8.97;100.00
10261;BME280;5175;42.606;23.388;2023-11-22T07:55:37;93237.59;;;8.94;100.00
10261;BME280;5175;42.606;23.388;2023-11-22T07:58:03;93252.84;;;9.12;100.00
10261;BME280;5175;42.606;23.388;2023-11-22T08:00:32;93236.31;;;9.15;100.00
10261;BME280;5175;42.606;23.388;2023-11-22T08:02:59;93251.28;;;9.11;100.00
10261;BME280;5175;42.606;23.388;2023-11-22T08:05:28;93253.03;;;9.20;100.00
10261;BME280;5175;42.606;23.388;2023-11-22T08:07:56;93251.13;;;9.26;100.00
10261;BME280;5175;42.606;23.388;2023-11-22T08:10:23;93242.84;;;9.27;100.00
10261;BME280;5175;42.606;23.388;2023-11-22T08:12:50;93247.78;;;9.39;100.00
10261;BME280;5175;42.606;23.388;2023-11-22T08:15:17;93247.28;;;9.37;100.00
10261;BME280;5175;42.606;23.388;2023-11-22T08:17:45;93237.63;;;9.41;100.00
10261;BME280;5175;42.606;23.388;2023-11-22T08:20:12;93260.00;;;9.40;100.00
10261;BME280;5175;42.606;23.388;2023-11-22T08:22:43;93265.31;;;9.40;100.00
10261;BME280;5175;42.606;23.388;2023-11-22T08:25:12;93263.41;;;9.45;100.00
10261;BME280;5175;42.606;23.388;2023-11-22T08:27:39;93267.94;;;9.45;100.00
10261;BME280;5175;42.606;23.388;2023-11-22T08:30:07;93266.53;;;9.29;100.00
10261;BME280;5175;42.606;23.388;2023-11-22T08:32:39;93268.16;;;9.49;100.00
10261;BME280;5175;42.606;23.388;2023-11-22T08:35:08;93256.56;;;9.39;100.00
10261;BME280;5175;42.606;23.388;2023-11-22T08:37:35;93255.53;;;9.59;100.00
10261;BME280;5175;42.606;23.388;2023-11-22T08:40:05;93253.88;;;9.63;100.00
10261;BME280;5175;42.606;23.388;2023-11-22T08:42:33;93261.53;;;9.70;100.00
10261;BME280;5175;42.606;23.388;2023-11-22T08:45:01;93273.69;;;9.76;100.00
10261;BME280;5175;42.606;23.388;2023-11-22T08:47:28;93270.41;;;9.84;100.00
10261;BME280;5175;42.606;23.388;2023-11-22T08:49:54;93276.25;;;9.86;100.00
10261;BME280;5175;42.606;23.388;2023-11-22T08:52:21;93285.06;;;9.81;100.00
10261;BME280;5175;42.606;23.388;2023-11-22T08:54:48;93280.50;;;9.87;100.00
10261;BME280;5175;42.606;23.388;2023-11-22T08:57:15;93261.94;;;10.00;100.00
10261;BME280;5175;42.606;23.388;2023-11-22T08:59:43;93283.53;;;9.99;100.00
10261;BME280;5175;42.606;23.388;2023-11-22T09:02:10;93279.22;;;10.03;100.00
10261;BME280;5175;42.606;23.388;2023-11-22T09:04:37;93274.69;;;10.03;100.00
10261;BME280;5175;42.606;23.388;2023-11-22T09:07:06;93282.69;;;10.03;100.00
10261;BME280;5175;42.606;23.388;2023-11-22T09:09:35;93290.28;;;10.15;100.00
10261;BME280;5175;42.606;23.388;2023-11-22T09:12:02;93288.75;;;10.09;100.00
10261;BME280;5175;42.606;23.388;2023-11-22T09:14:30;93280.59;;;10.00;100.00
10261;BME280;5175;42.606;23.388;2023-11-22T09:16:58;93298.84;;;10.12;100.00
10261;BME280;5175;42.606;23.388;2023-11-22T09:19:26;93291.44;;;10.28;100.00
10261;BME280;5175;42.606;23.388;2023-11-22T09:21:53;93300.31;;;9.99;100.00
10261;BME280;5175;42.606;23.388;2023-11-22T09:24:20;93296.00;;;10.03;100.00
10261;BME280;5175;42.606;23.388;2023-11-22T09:26:47;93293.44;;;10.17;100.00
10261;BME280;5175;42.606;23.388;2023-11-22T09:29:13;93299.88;;;10.35;100.00
10261;BME280;5175;42.606;23.388;2023-11-22T09:31:40;93314.59;;;10.32;100.00
10261;BME280;5175;42.606;23.388;2023-11-22T09:34:09;93309.53;;;10.49;100.00
10261;BME280;5175;42.606;23.388;2023-11-22T09:36:36;93318.66;;;10.43;100.00
10261;BME280;5175;42.606;23.388;2023-11-22T09:39:03;93320.47;;;10.48;100.00
10261;BME280;5175;42.606;23.388;2023-11-22T09:41:34;93320.19;;;10.49;100.00
10261;BME280;5175;42.606;23.388;2023-11-22T09:44:00;93313.06;;;10.26;100.00
10261;BME280;5175;42.606;23.388;2023-11-22T09:46:28;93302.66;;;10.43;100.00
10261;BME280;5175;42.606;23.388;2023-11-22T09:48:57;93302.97;;;10.42;100.00
10261;BME280;5175;42.606;23.388;2023-11-22T09:51:29;93304.75;;;10.46;100.00
10261;BME280;5175;42.606;23.388;2023-11-22T09:53:58;93305.41;;;10.57;100.00
10261;BME280;5175;42.606;23.388;2023-11-22T09:56:30;93306.22;;;10.57;100.00
10261;BME280;5175;42.606;23.388;2023-11-22T09:58:59;93287.97;;;10.46;100.00
10261;BME280;5175;42.606;23.388;2023-11-22T10:01:27;93289.81;;;10.64;100.00
10261;BME280;5175;42.606;23.388;2023-11-22T10:03:56;93302.25;;;10.55;100.00
10261;BME280;5175;42.606;23.388;2023-11-22T10:06:25;93306.94;;;10.44;100.00
10261;BME280;5175;42.606;23.388;2023-11-22T10:08:55;93322.63;;;10.27;100.00
10261;BME280;5175;42.606;23.388;2023-11-22T10:11:22;93307.34;;;10.33;100.00
10261;BME280;5175;42.606;23.388;2023-11-22T10:13:49;93304.47;;;10.48;100.00
10261;BME280;5175;42.606;23.388;2023-11-22T10:16:17;93308.81;;;10.44;100.00
10261;BME280;5175;42.606;23.388;2023-11-22T10:18:46;93289.47;;;10.33;100.00
10261;BME280;5175;42.606;23.388;2023-11-22T10:21:20;93304.41;;;10.34;100.00
10261;BME280;5175;42.606;23.388;2023-11-22T10:23:49;93307.72;;;10.26;100.00
10261;BME280;5175;42.606;23.388;2023-11-22T10:26:17;93292.31;;;10.42;100.00
10261;BME280;5175;42.606;23.388;2023-11-22T10:28:44;93297.72;;;10.37;100.00
10261;BME280;5175;42.606;23.388;2023-11-22T10:31:10;93293.81;;;10.48;100.00
10261;BME280;5175;42.606;23.388;2023-11-22T10:33:41;93304.69;;;10.51;100.00
10261;BME280;5175;42.606;23.388;2023-11-22T10:36:09;93310.66;;;10.62;100.00
10261;BME280;5175;42.606;23.388;2023-11-22T10:38:37;93305.03;;;10.63;100.00
10261;BME280;5175;42.606;23.388;2023-11-22T10:41:06;93298.59;;;10.32;100.00
10261;BME280;5175;42.606;23.388;2023-11-22T10:43:34;93296.84;;;10.41;100.00
10261;BME280;5175;42.606;23.388;2023-11-22T10:46:02;93293.16;;;10.56;100.00
10261;BME280;5175;42.606;23.388;2023-11-22T10:48:30;93311.66;;;10.66;100.00
10261;BME280;5175;42.606;23.388;2023-11-22T10:51:00;93311.88;;;10.69;100.00
10261;BME280;5175;42.606;23.388;2023-11-22T10:53:32;93305.97;;;10.73;100.00
10261;BME280;5175;42.606;23.388;2023-11-22T10:56:07;93310.44;;;10.77;100.00
10261;BME280;5175;42.606;23.388;2023-11-22T10:58:42;93315.69;;;10.82;100.00
10261;BME280;5175;42.606;23.388;2023-11-22T11:01:13;93310.94;;;10.79;100.00
10261;BME280;5175;42.606;23.388;2023-11-22T11:03:45;93303.41;;;10.81;100.00
10261;BME280;5175;42.606;23.388;2023-11-22T11:06:15;93297.59;;;10.79;100.00
10261;BME280;5175;42.606;23.388;2023-11-22T11:08:47;93307.53;;;10.74;100.00
10261;BME280;5175;42.606;23.388;2023-11-22T11:11:17;93310.22;;;10.74;100.00
10261;BME280;5175;42.606;23.388;2023-11-22T11:13:45;93314.19;;;10.76;100.00
10261;BME280;5175;42.606;23.388;2023-11-22T11:16:13;93308.84;;;10.76;100.00
10261;BME280;5175;42.606;23.388;2023-11-22T11:18:41;93313.91;;;10.78;100.00
10261;BME280;5175;42.606;23.388;2023-11-22T11:21:09;93318.22;;;10.74;100.00
10261;BME280;5175;42.606;23.388;2023-11-22T11:23:39;93303.09;;;10.69;100.00
10261;BME280;5175;42.606;23.388;2023-11-22T11:26:15;93305.09;;;10.77;100.00
10261;BME280;5175;42.606;23.388;2023-11-22T11:28:44;93310.66;;;10.81;100.00
10261;BME280;5175;42.606;23.388;2023-11-22T11:31:11;93314.69;;;10.78;100.00
10261;BME280;5175;42.606;23.388;2023-11-22T11:33:53;93302.13;;;10.79;100.00
10261;BME280;5175;42.606;23.388;2023-11-22T11:36:22;93302.56;;;10.86;100.00
10261;BME280;5175;42.606;23.388;2023-11-22T11:38:51;93302.09;;;10.97;100.00
10261;BME280;5175;42.606;23.388;2023-11-22T11:41:24;93306.06;;;11.00;100.00
10261;BME280;5175;42.606;23.388;2023-11-22T11:43:51;93321.19;;;11.04;100.00
10261;BME280;5175;42.606;23.388;2023-11-22T11:46:18;93323.09;;;11.04;100.00
10261;BME280;5175;42.606;23.388;2023-11-22T11:48:47;93327.91;;;11.02;100.00
10261;BME280;5175;42.606;23.388;2023-11-22T11:51:16;93324.75;;;11.00;100.00
10261;BME280;5175;42.606;23.388;2023-11-22T11:53:42;93321.59;;;10.98;100.00
10261;BME280;5175;42.606;23.388;2023-11-22T11:56:09;93318.91;;;10.98;100.00
10261;BME280;5175;42.606;23.388;2023-11-22T11:58:38;93317.41;;;10.92;100.00
10261;BME280;5175;42.606;23.388;2023-11-22T12:01:05;93315.25;;;10.94;100.00
10261;BME280;5175;42.606;23.388;2023-11-22T12:03:32;93316.03;;;10.94;100.00
10261;BME280;5175;42.606;23.388;2023-11-22T12:05:59;93317.03;;;10.98;100.00
10261;BME280;5175;42.606;23.388;2023-11-22T12:08:26;93313.63;;;11.11;100.00
10261;BME280;5175;42.606;23.388;2023-11-22T12:10:56;93310.69;;;10.94;100.00
10261;BME280;5175;42.606;23.388;2023-11-22T12:13:24;93313.91;;;11.10;100.00
10261;BME280;5175;42.606;23.388;2023-11-22T12:15:53;93341.41;;;11.10;100.00
10261;BME280;5175;42.606;23.388;2023-11-22T12:18:20;93345.13;;;11.09;100.00
10261;BME280;5175;42.606;23.388;2023-11-22T12:20:54;93340.59;;;11.10;100.00
10261;BME280;5175;42.606;23.388;2023-11-22T12:23:22;93337.94;;;11.10;100.00
10261;BME280;5175;42.606;23.388;2023-11-22T12:25:49;93348.09;;;11.26;100.00
10261;BME280;5175;42.606;23.388;2023-11-22T12:28:22;93343.50;;;11.13;100.00
10261;BME280;5175;42.606;23.388;2023-11-22T12:30:49;93336.19;;;11.19;100.00
10261;BME280;5175;42.606;23.388;2023-11-22T12:33:17;93345.09;;;11.14;100.00
10261;BME280;5175;42.606;23.388;2023-11-22T12:35:45;93333.84;;;10.99;100.00
10261;BME280;5175;42.606;23.388;2023-11-22T12:38:12;93340.91;;;11.08;100.00
10261;BME280;5175;42.606;23.388;2023-11-22T12:40:44;93337.50;;;11.35;100.00
10261;BME280;5175;42.606;23.388;2023-11-22T12:43:12;93355.91;;;11.37;100.00
10261;BME280;5175;42.606;23.388;2023-11-22T12:45:39;93347.59;;;11.38;100.00
10261;BME280;5175;42.606;23.388;2023-11-22T12:48:21;93342.66;;;11.31;100.00
10261;BME280;5175;42.606;23.388;2023-11-22T12:50:50;93361.94;;;11.28;100.00
10261;BME280;5175;42.606;23.388;2023-11-22T12:53:17;93364.19;;;11.67;100.00
10261;BME280;5175;42.606;23.388;2023-11-22T12:55:47;93365.44;;;11.56;100.00
10261;BME280;5175;42.606;23.388;2023-11-22T12:58:14;93371.44;;;11.35;100.00
10261;BME280;5175;42.606;23.388;2023-11-22T13:00:42;93374.31;;;11.38;100.00